Samadhi — ZCOY9 — position and weather

sailwx.info

Track history (hours):
 
Tides and Currents Weather Stations Pressure Air Temp Water Temp Dewpoint Dewpoint Depression Visibility Wind Speed Wind Dir Waves Ship Positions

Samadhi

Last reported at 2016-Jun-29 13:16 UTC. Time now 2016-Jun-29 16:34 UTC.
Position N 43°53' E 008°01'.

Length 61 m; draft 3.3 m.

Type: Pleasure craft. MMSI: 319420000.

Date/timePositionNaut miles runAvg speedWind from/ knotsBaromVisibWave heightAir tempDewpointWater temp
2016-Jun-29 13:16N 43°53' E 008°01'0 0.0
2016-Jun-29 12:22N 43°53' E 008°01'0 0.0
2016-Jun-29 03:10N 43°53' E 008°01'0 0.0
2016-Jun-29 02:31N 43°53' E 008°01'0 0.0
2016-Jun-28 19:28N 43°53' E 008°01'0 0.0
2016-Jun-28 18:31N 43°53' E 008°01'0 0.0
2016-Jun-28 17:28N 43°53' E 008°01'0 0.0
2016-Jun-28 16:25N 43°53' E 008°01'0 0.0
2016-Jun-28 15:31N 43°53' E 008°01'0 0.0
2016-Jun-28 14:31N 43°53' E 008°01'0 0.0
2016-Jun-28 13:28N 43°53' E 008°01'0 0.0
2016-Jun-28 12:25N 43°53' E 008°01'0 0.0
2016-Jun-28 10:28N 43°53' E 008°01'0 0.0
2016-Jun-28 09:31N 43°53' E 008°01'0 0.0
2016-Jun-28 08:28N 43°53' E 008°01'0 0.0
2016-Jun-28 07:28N 43°53' E 008°01'0 0.0
2016-Jun-28 04:04N 43°53' E 008°01'0 0.0
2016-Jun-28 02:31N 43°53' E 008°01'0 0.0
2016-Jun-27 18:31N 43°53' E 008°01'0 0.0
2016-Jun-27 17:31N 43°53' E 008°01'0 0.0
2016-Jun-27 16:28N 43°53' E 008°01'0 0.0
2016-Jun-27 15:31N 43°53' E 008°01'0 0.0
2016-Jun-27 14:31N 43°53' E 008°01'0 0.0
2016-Jun-27 13:22N 43°53' E 008°01'0 0.0
2016-Jun-27 10:13N 43°53' E 008°01'0 0.0
2016-Jun-26 22:22N 43°53' E 008°01'0 0.0
2016-Jun-26 19:13N 43°53' E 008°01'0 0.0
2016-Jun-26 18:31N 43°53' E 008°01'0 0.0
2016-Jun-25 04:28N 43°53' E 008°01'0 0.0
2016-Jun-25 01:28N 43°53' E 008°01'0 0.0
2016-Jun-25 00:28N 43°53' E 008°01'0 0.0
2016-Jun-24 21:22N 43°53' E 008°01'0 0.0
2016-Jun-24 20:31N 43°53' E 008°01'0 0.0
2016-Jun-24 19:31N 43°53' E 008°01'0 0.0
2016-Jun-24 18:28N 43°53' E 008°01'0 0.3
2016-Jun-24 17:24N 43°53' E 008°02'910.2
2016-Jun-24 16:31N 43°47' E 007°52'1212.0
2016-Jun-24 15:32N 43°37' E 007°43'2412.2
2016-Jun-24 13:33N 43°39' E 007°10'0 0.4
2016-Jun-24 12:33N 43°39' E 007°10'0 0.0
2016-Jun-24 11:33N 43°39' E 007°10'9 7.2
2016-Jun-24 10:20N 43°41' E 007°21'1 1.6
2016-Jun-24 09:27N 43°42' E 007°21'0 0.0
2016-Jun-24 08:33N 43°42' E 007°21'0 0.0
2016-Jun-24 07:33N 43°42' E 007°21'9 2.9
2016-Jun-24 04:33N 43°39' E 007°09'0 0.0
2016-Jun-24 03:33N 43°39' E 007°09'0 0.0
2016-Jun-24 02:21N 43°39' E 007°09'0 0.0
2016-Jun-24 01:33N 43°39' E 007°09'0 0.0
2016-Jun-24 00:33N 43°39' E 007°09'0 0.0
2016-Jun-23 23:33N 43°39' E 007°09'0 0.0
2016-Jun-23 22:33N 43°39' E 007°09'6 6.2
2016-Jun-23 21:33N 43°33' E 007°09'2 1.6
2016-Jun-23 20:27N 43°33' E 007°07'0 0.0
2016-Jun-23 19:27N 43°33' E 007°07'0 0.0
2016-Jun-23 18:33N 43°33' E 007°07'0 0.0
2016-Jun-23 17:33N 43°33' E 007°07'0 0.0
2016-Jun-23 16:34N 43°33' E 007°07'6 4.5
2016-Jun-23 15:11N 43°39' E 007°09'3 4.5
2016-Jun-23 14:32N 43°38' E 007°13'7 4.9
2016-Jun-23 13:12N 43°42' E 007°21'0 0.0
2016-Jun-23 11:12N 43°42' E 007°21'0 0.0
2016-Jun-23 10:30N 43°42' E 007°21'0 0.0
2016-Jun-23 07:24N 43°42' E 007°21'0 0.0
2016-Jun-23 05:24N 43°42' E 007°21'0 0.0
2016-Jun-23 04:06N 43°42' E 007°21'0 0.0
2016-Jun-23 03:30N 43°42' E 007°21'0 0.0
2016-Jun-23 00:12N 43°42' E 007°21'0 0.0
2016-Jun-22 23:24N 43°42' E 007°21'0 0.0
2016-Jun-22 22:18N 43°42' E 007°21'0 0.0
2016-Jun-22 21:30N 43°42' E 007°21'0 0.0
2016-Jun-22 20:24N 43°42' E 007°21'0 0.0
2016-Jun-22 19:30N 43°42' E 007°21'2 1.9
2016-Jun-22 18:33N 43°41' E 007°21'1413.5
2016-Jun-22 17:33N 43°32' E 007°07'1 0.7
2016-Jun-22 16:31N 43°33' E 007°07'0 0.0
2016-Jun-22 15:31N 43°33' E 007°07'0 0.0
2016-Jun-22 14:19N 43°33' E 007°07'0 0.0
2016-Jun-22 13:31N 43°33' E 007°07'3 3.3
2016-Jun-22 12:33N 43°31' E 007°03'0 0.0
2016-Jun-22 11:33N 43°31' E 007°03'0 0.0
2016-Jun-22 10:21N 43°31' E 007°03'0 0.0
2016-Jun-22 09:21N 43°31' E 007°03'0 0.0
2016-Jun-22 08:33N 43°31' E 007°03'0 0.0
2016-Jun-22 07:30N 43°31' E 007°03'1 0.5
2016-Jun-22 04:33N 43°30' E 007°05'4013.5
2016-Jun-22 01:34N 42°59' E 006°29'  
Track history (hours):
 
Tides and Currents Weather Stations Pressure Air Temp Water Temp Dewpoint Dewpoint Depression Visibility Wind Speed Wind Dir Waves Ship Positions

Samadhi

Last reported at 2016-Jun-29 13:16 UTC. Time now 2016-Jun-29 16:34 UTC.
Position N 43°53' E 008°01'.

Length 61 m; draft 3.3 m.

Type: Pleasure craft. MMSI: 319420000.

Date/timePositionNaut miles runAvg speedWind from/ knotsBaromVisibWave heightAir tempDewpointWater temp
2016-Jun-29 13:16N 43°53' E 008°01'0 0.0
2016-Jun-29 12:22N 43°53' E 008°01'0 0.0
2016-Jun-29 03:10N 43°53' E 008°01'0 0.0
2016-Jun-29 02:31N 43°53' E 008°01'0 0.0
2016-Jun-28 19:28N 43°53' E 008°01'0 0.0
2016-Jun-28 18:31N 43°53' E 008°01'0 0.0
2016-Jun-28 17:28N 43°53' E 008°01'0 0.0
2016-Jun-28 16:25N 43°53' E 008°01'0 0.0
2016-Jun-28 15:31N 43°53' E 008°01'0 0.0
2016-Jun-28 14:31N 43°53' E 008°01'0 0.0
2016-Jun-28 13:28N 43°53' E 008°01'0 0.0
2016-Jun-28 12:25N 43°53' E 008°01'0 0.0
2016-Jun-28 10:28N 43°53' E 008°01'0 0.0
2016-Jun-28 09:31N 43°53' E 008°01'0 0.0
2016-Jun-28 08:28N 43°53' E 008°01'0 0.0
2016-Jun-28 07:28N 43°53' E 008°01'0 0.0
2016-Jun-28 04:04N 43°53' E 008°01'0 0.0
2016-Jun-28 02:31N 43°53' E 008°01'0 0.0
2016-Jun-27 18:31N 43°53' E 008°01'0 0.0
2016-Jun-27 17:31N 43°53' E 008°01'0 0.0
2016-Jun-27 16:28N 43°53' E 008°01'0 0.0
2016-Jun-27 15:31N 43°53' E 008°01'0 0.0
2016-Jun-27 14:31N 43°53' E 008°01'0 0.0
2016-Jun-27 13:22N 43°53' E 008°01'0 0.0
2016-Jun-27 10:13N 43°53' E 008°01'0 0.0
2016-Jun-26 22:22N 43°53' E 008°01'0 0.0
2016-Jun-26 19:13N 43°53' E 008°01'0 0.0
2016-Jun-26 18:31N 43°53' E 008°01'0 0.0
2016-Jun-25 04:28N 43°53' E 008°01'0 0.0
2016-Jun-25 01:28N 43°53' E 008°01'0 0.0
2016-Jun-25 00:28N 43°53' E 008°01'0 0.0
2016-Jun-24 21:22N 43°53' E 008°01'0 0.0
2016-Jun-24 20:31N 43°53' E 008°01'0 0.0
2016-Jun-24 19:31N 43°53' E 008°01'0 0.0
2016-Jun-24 18:28N 43°53' E 008°01'0 0.3
2016-Jun-24 17:24N 43°53' E 008°02'910.2
2016-Jun-24 16:31N 43°47' E 007°52'1212.0
2016-Jun-24 15:32N 43°37' E 007°43'2412.2
2016-Jun-24 13:33N 43°39' E 007°10'0 0.4
2016-Jun-24 12:33N 43°39' E 007°10'0 0.0
2016-Jun-24 11:33N 43°39' E 007°10'9 7.2
2016-Jun-24 10:20N 43°41' E 007°21'1 1.6
2016-Jun-24 09:27N 43°42' E 007°21'0 0.0
2016-Jun-24 08:33N 43°42' E 007°21'0 0.0
2016-Jun-24 07:33N 43°42' E 007°21'9 2.9
2016-Jun-24 04:33N 43°39' E 007°09'0 0.0
2016-Jun-24 03:33N 43°39' E 007°09'0 0.0
2016-Jun-24 02:21N 43°39' E 007°09'0 0.0
2016-Jun-24 01:33N 43°39' E 007°09'0 0.0
2016-Jun-24 00:33N 43°39' E 007°09'0 0.0
2016-Jun-23 23:33N 43°39' E 007°09'0 0.0
2016-Jun-23 22:33N 43°39' E 007°09'6 6.2
2016-Jun-23 21:33N 43°33' E 007°09'2 1.6
2016-Jun-23 20:27N 43°33' E 007°07'0 0.0
2016-Jun-23 19:27N 43°33' E 007°07'0 0.0
2016-Jun-23 18:33N 43°33' E 007°07'0 0.0
2016-Jun-23 17:33N 43°33' E 007°07'0 0.0
2016-Jun-23 16:34N 43°33' E 007°07'6 4.5
2016-Jun-23 15:11N 43°39' E 007°09'3 4.5
2016-Jun-23 14:32N 43°38' E 007°13'7 4.9
2016-Jun-23 13:12N 43°42' E 007°21'0 0.0
2016-Jun-23 11:12N 43°42' E 007°21'0 0.0
2016-Jun-23 10:30N 43°42' E 007°21'0 0.0
2016-Jun-23 07:24N 43°42' E 007°21'0 0.0
2016-Jun-23 05:24N 43°42' E 007°21'0 0.0
2016-Jun-23 04:06N 43°42' E 007°21'0 0.0
2016-Jun-23 03:30N 43°42' E 007°21'0 0.0
2016-Jun-23 00:12N 43°42' E 007°21'0 0.0
2016-Jun-22 23:24N 43°42' E 007°21'0 0.0
2016-Jun-22 22:18N 43°42' E 007°21'0 0.0
2016-Jun-22 21:30N 43°42' E 007°21'0 0.0
2016-Jun-22 20:24N 43°42' E 007°21'0 0.0
2016-Jun-22 19:30N 43°42' E 007°21'2 1.9
2016-Jun-22 18:33N 43°41' E 007°21'1413.5
2016-Jun-22 17:33N 43°32' E 007°07'1 0.7
2016-Jun-22 16:31N 43°33' E 007°07'0 0.0
2016-Jun-22 15:31N 43°33' E 007°07'0 0.0
2016-Jun-22 14:19N 43°33' E 007°07'0 0.0
2016-Jun-22 13:31N 43°33' E 007°07'3 3.3
2016-Jun-22 12:33N 43°31' E 007°03'0 0.0
2016-Jun-22 11:33N 43°31' E 007°03'0 0.0
2016-Jun-22 10:21N 43°31' E 007°03'0 0.0
2016-Jun-22 09:21N 43°31' E 007°03'0 0.0
2016-Jun-22 08:33N 43°31' E 007°03'0 0.0
2016-Jun-22 07:30N 43°31' E 007°03'1 0.5
2016-Jun-22 04:33N 43°30' E 007°05'4013.5
2016-Jun-22 01:34N 42°59' E 006°29'  

Dump ship's entire track history